Conway, Arkansas
Current Conditions -  °F | °C
As of 9:34 AM on Monday 22 Dec 2014 (Local Time) from KLRF Reporting Station
Drizzle Drizzle  
Wind Chill: 50°   Ceiling: 300
Heat Index: 50°   Visibility: 4mi
Dew Point: 50°   Wind: 6mph
Humidity: 100%   Direction: 150°SSE
Pressure: 29.73"   Gusts: NA
Location:  35.09°N, 92.44°W
Report Text: KLRF 221534Z AUTO 15005KT 4SM -DZ BR OVC003 10/10 A2973 RMK AO2
Loading
Personal Weather Stations






























Interactive Weather Map New forecast layout! Learn more

10-Day Weather Forecast

Advertisements
Track Severe Weather on mobile